sensor_id;sensor_type;location;lat;lon;timestamp;P1;durP1;ratioP1;P2;durP2;ratioP2
59434;SDS011;45241;49.768;8.636;2023-05-08T00:00:45;11.95;;;7.38;;
59434;SDS011;45241;49.768;8.636;2023-05-08T00:03:11;9.40;;;7.20;;
59434;SDS011;45241;49.768;8.636;2023-05-08T00:05:36;8.07;;;7.15;;
59434;SDS011;45241;49.768;8.636;2023-05-08T00:08:01;8.48;;;7.20;;
59434;SDS011;45241;49.768;8.636;2023-05-08T00:10:27;11.10;;;7.65;;
59434;SDS011;45241;49.768;8.636;2023-05-08T00:12:53;7.97;;;7.18;;
59434;SDS011;45241;49.768;8.636;2023-05-08T00:15:19;10.68;;;6.82;;
59434;SDS011;45241;49.768;8.636;2023-05-08T00:17:44;8.05;;;7.00;;
59434;SDS011;45241;49.768;8.636;2023-05-08T00:20:10;8.85;;;7.68;;
59434;SDS011;45241;49.768;8.636;2023-05-08T00:22:36;7.88;;;6.53;;
59434;SDS011;45241;49.768;8.636;2023-05-08T00:25:01;6.70;;;6.10;;
59434;SDS011;45241;49.768;8.636;2023-05-08T00:27:29;7.03;;;6.32;;
59434;SDS011;45241;49.768;8.636;2023-05-08T00:29:55;9.68;;;6.72;;
59434;SDS011;45241;49.768;8.636;2023-05-08T00:32:21;10.20;;;7.30;;
59434;SDS011;45241;49.768;8.636;2023-05-08T00:34:46;9.05;;;6.45;;
59434;SDS011;45241;49.768;8.636;2023-05-08T00:37:12;8.35;;;6.63;;
59434;SDS011;45241;49.768;8.636;2023-05-08T00:39:37;7.75;;;6.15;;
59434;SDS011;45241;49.768;8.636;2023-05-08T00:42:02;7.18;;;6.15;;
59434;SDS011;45241;49.768;8.636;2023-05-08T00:44:27;7.60;;;6.38;;
59434;SDS011;45241;49.768;8.636;2023-05-08T00:46:53;6.78;;;6.07;;
59434;SDS011;45241;49.768;8.636;2023-05-08T00:49:18;7.13;;;5.90;;
59434;SDS011;45241;49.768;8.636;2023-05-08T00:51:45;9.60;;;6.43;;
59434;SDS011;45241;49.768;8.636;2023-05-08T00:54:11;7.03;;;6.00;;
59434;SDS011;45241;49.768;8.636;2023-05-08T00:56:37;7.38;;;5.75;;
59434;SDS011;45241;49.768;8.636;2023-05-08T00:59:05;9.75;;;5.43;;
59434;SDS011;45241;49.768;8.636;2023-05-08T01:01:33;9.77;;;6.15;;
59434;SDS011;45241;49.768;8.636;2023-05-08T01:04:01;9.68;;;5.68;;
59434;SDS011;45241;49.768;8.636;2023-05-08T01:06:27;7.00;;;6.20;;
59434;SDS011;45241;49.768;8.636;2023-05-08T01:08:53;8.15;;;6.35;;
59434;SDS011;45241;49.768;8.636;2023-05-08T01:16:44;8.20;;;6.15;;
59434;SDS011;45241;49.768;8.636;2023-05-08T01:21:55;6.47;;;5.75;;
59434;SDS011;45241;49.768;8.636;2023-05-08T01:30:15;8.85;;;6.70;;
59434;SDS011;45241;49.768;8.636;2023-05-08T01:36:09;7.88;;;6.65;;
59434;SDS011;45241;49.768;8.636;2023-05-08T01:38:39;9.75;;;6.13;;
59434;SDS011;45241;49.768;8.636;2023-05-08T01:41:17;9.38;;;6.90;;
59434;SDS011;45241;49.768;8.636;2023-05-08T01:46:31;7.40;;;6.32;;
59434;SDS011;45241;49.768;8.636;2023-05-08T01:49:04;9.32;;;6.53;;
59434;SDS011;45241;49.768;8.636;2023-05-08T01:51:35;7.68;;;6.28;;
59434;SDS011;45241;49.768;8.636;2023-05-08T01:54:08;7.70;;;6.90;;
59434;SDS011;45241;49.768;8.636;2023-05-08T01:56:38;7.82;;;6.85;;
59434;SDS011;45241;49.768;8.636;2023-05-08T01:59:07;7.65;;;6.32;;
59434;SDS011;45241;49.768;8.636;2023-05-08T02:01:37;7.93;;;6.53;;
59434;SDS011;45241;49.768;8.636;2023-05-08T02:04:04;10.25;;;7.05;;
59434;SDS011;45241;49.768;8.636;2023-05-08T02:06:31;8.60;;;7.78;;
59434;SDS011;45241;49.768;8.636;2023-05-08T02:08:57;8.38;;;7.45;;
59434;SDS011;45241;49.768;8.636;2023-05-08T02:11:24;9.65;;;7.70;;
59434;SDS011;45241;49.768;8.636;2023-05-08T02:13:50;9.57;;;7.45;;
59434;SDS011;45241;49.768;8.636;2023-05-08T02:16:16;9.07;;;7.28;;
59434;SDS011;45241;49.768;8.636;2023-05-08T02:18:45;9.85;;;7.70;;
59434;SDS011;45241;49.768;8.636;2023-05-08T02:21:16;10.48;;;8.43;;
59434;SDS011;45241;49.768;8.636;2023-05-08T02:23:42;9.68;;;8.05;;
59434;SDS011;45241;49.768;8.636;2023-05-08T02:26:09;9.52;;;7.60;;
59434;SDS011;45241;49.768;8.636;2023-05-08T02:28:37;8.82;;;7.47;;
59434;SDS011;45241;49.768;8.636;2023-05-08T02:31:04;9.55;;;8.05;;
59434;SDS011;45241;49.768;8.636;2023-05-08T02:33:30;9.57;;;7.25;;
59434;SDS011;45241;49.768;8.636;2023-05-08T02:35:56;6.93;;;6.00;;
59434;SDS011;45241;49.768;8.636;2023-05-08T02:38:23;12.55;;;6.70;;
59434;SDS011;45241;49.768;8.636;2023-05-08T02:40:52;10.75;;;6.07;;
59434;SDS011;45241;49.768;8.636;2023-05-08T02:43:21;6.90;;;6.20;;
59434;SDS011;45241;49.768;8.636;2023-05-08T02:53:44;9.88;;;6.13;;
59434;SDS011;45241;49.768;8.636;2023-05-08T02:56:31;9.23;;;6.18;;
59434;SDS011;45241;49.768;8.636;2023-05-08T02:59:09;6.63;;;5.97;;
59434;SDS011;45241;49.768;8.636;2023-05-08T03:01:51;11.77;;;6.20;;
59434;SDS011;45241;49.768;8.636;2023-05-08T03:04:25;6.82;;;6.13;;
59434;SDS011;45241;49.768;8.636;2023-05-08T03:06:56;6.88;;;6.00;;
59434;SDS011;45241;49.768;8.636;2023-05-08T03:09:23;8.70;;;5.93;;
59434;SDS011;45241;49.768;8.636;2023-05-08T03:11:58;8.65;;;6.22;;
59434;SDS011;45241;49.768;8.636;2023-05-08T03:14:27;10.60;;;6.10;;
59434;SDS011;45241;49.768;8.636;2023-05-08T03:16:56;7.25;;;6.05;;
59434;SDS011;45241;49.768;8.636;2023-05-08T03:19:29;7.28;;;5.85;;
59434;SDS011;45241;49.768;8.636;2023-05-08T03:21:59;8.40;;;5.53;;
59434;SDS011;45241;49.768;8.636;2023-05-08T03:24:27;10.65;;;5.95;;
59434;SDS011;45241;49.768;8.636;2023-05-08T03:26:55;7.22;;;6.53;;
59434;SDS011;45241;49.768;8.636;2023-05-08T03:29:23;9.93;;;5.68;;
59434;SDS011;45241;49.768;8.636;2023-05-08T03:31:50;9.25;;;5.78;;
59434;SDS011;45241;49.768;8.636;2023-05-08T03:34:16;8.52;;;5.55;;
59434;SDS011;45241;49.768;8.636;2023-05-08T03:36:43;6.75;;;6.13;;
59434;SDS011;45241;49.768;8.636;2023-05-08T03:39:10;7.03;;;6.32;;
59434;SDS011;45241;49.768;8.636;2023-05-08T03:41:36;9.70;;;6.43;;
59434;SDS011;45241;49.768;8.636;2023-05-08T03:44:01;7.00;;;6.15;;
59434;SDS011;45241;49.768;8.636;2023-05-08T03:46:29;7.50;;;6.70;;
59434;SDS011;45241;49.768;8.636;2023-05-08T03:48:55;6.90;;;6.07;;
59434;SDS011;45241;49.768;8.636;2023-05-08T03:51:24;7.53;;;6.22;;
59434;SDS011;45241;49.768;8.636;2023-05-08T03:53:50;8.48;;;6.35;;
59434;SDS011;45241;49.768;8.636;2023-05-08T03:56:15;7.88;;;6.40;;
59434;SDS011;45241;49.768;8.636;2023-05-08T04:09:00;7.32;;;6.28;;
59434;SDS011;45241;49.768;8.636;2023-05-08T04:11:30;7.57;;;6.03;;
59434;SDS011;45241;49.768;8.636;2023-05-08T04:14:07;7.32;;;5.68;;
59434;SDS011;45241;49.768;8.636;2023-05-08T04:16:37;8.32;;;6.38;;
59434;SDS011;45241;49.768;8.636;2023-05-08T04:19:10;8.65;;;6.30;;
59434;SDS011;45241;49.768;8.636;2023-05-08T04:21:42;9.15;;;6.25;;
59434;SDS011;45241;49.768;8.636;2023-05-08T04:24:09;7.70;;;6.75;;
59434;SDS011;45241;49.768;8.636;2023-05-08T04:26:39;6.63;;;6.03;;
59434;SDS011;45241;49.768;8.636;2023-05-08T04:29:05;8.63;;;5.97;;
59434;SDS011;45241;49.768;8.636;2023-05-08T04:31:31;7.15;;;6.43;;
59434;SDS011;45241;49.768;8.636;2023-05-08T04:33:59;8.77;;;6.65;;
59434;SDS011;45241;49.768;8.636;2023-05-08T04:36:26;8.95;;;6.18;;
59434;SDS011;45241;49.768;8.636;2023-05-08T04:38:55;8.85;;;6.38;;
59434;SDS011;45241;49.768;8.636;2023-05-08T04:41:20;8.98;;;6.68;;
59434;SDS011;45241;49.768;8.636;2023-05-08T04:43:46;8.65;;;6.40;;
59434;SDS011;45241;49.768;8.636;2023-05-08T04:46:12;9.93;;;6.60;;
59434;SDS011;45241;49.768;8.636;2023-05-08T04:48:37;7.18;;;6.45;;
59434;SDS011;45241;49.768;8.636;2023-05-08T04:51:02;8.02;;;6.30;;
59434;SDS011;45241;49.768;8.636;2023-05-08T04:53:28;7.68;;;6.25;;
59434;SDS011;45241;49.768;8.636;2023-05-08T04:55:53;8.45;;;6.78;;
59434;SDS011;45241;49.768;8.636;2023-05-08T04:58:19;7.05;;;5.97;;
59434;SDS011;45241;49.768;8.636;2023-05-08T05:00:44;7.15;;;6.45;;
59434;SDS011;45241;49.768;8.636;2023-05-08T05:03:09;10.00;;;6.43;;
59434;SDS011;45241;49.768;8.636;2023-05-08T05:05:35;9.63;;;6.65;;
59434;SDS011;45241;49.768;8.636;2023-05-08T05:08:00;8.50;;;6.47;;
59434;SDS011;45241;49.768;8.636;2023-05-08T05:10:25;8.25;;;6.45;;
59434;SDS011;45241;49.768;8.636;2023-05-08T05:12:51;11.10;;;6.75;;
59434;SDS011;45241;49.768;8.636;2023-05-08T05:15:16;7.70;;;6.82;;
59434;SDS011;45241;49.768;8.636;2023-05-08T05:17:41;11.13;;;7.55;;
59434;SDS011;45241;49.768;8.636;2023-05-08T05:20:07;9.55;;;7.07;;
59434;SDS011;45241;49.768;8.636;2023-05-08T05:22:33;9.02;;;7.00;;
59434;SDS011;45241;49.768;8.636;2023-05-08T05:24:58;9.10;;;6.85;;
59434;SDS011;45241;49.768;8.636;2023-05-08T05:27:24;9.07;;;7.00;;
59434;SDS011;45241;49.768;8.636;2023-05-08T05:29:49;9.98;;;7.38;;
59434;SDS011;45241;49.768;8.636;2023-05-08T05:32:14;8.73;;;6.60;;
59434;SDS011;45241;49.768;8.636;2023-05-08T05:34:40;10.68;;;7.05;;
59434;SDS011;45241;49.768;8.636;2023-05-08T05:37:06;11.18;;;7.03;;
59434;SDS011;45241;49.768;8.636;2023-05-08T05:39:31;8.00;;;7.10;;
59434;SDS011;45241;49.768;8.636;2023-05-08T05:41:56;11.00;;;7.03;;
59434;SDS011;45241;49.768;8.636;2023-05-08T05:44:22;8.52;;;7.70;;
59434;SDS011;45241;49.768;8.636;2023-05-08T05:46:47;9.77;;;7.40;;
59434;SDS011;45241;49.768;8.636;2023-05-08T05:49:12;11.15;;;7.88;;
59434;SDS011;45241;49.768;8.636;2023-05-08T05:51:38;11.45;;;7.68;;
59434;SDS011;45241;49.768;8.636;2023-05-08T05:54:03;8.68;;;7.72;;
59434;SDS011;45241;49.768;8.636;2023-05-08T05:56:28;8.93;;;7.55;;
59434;SDS011;45241;49.768;8.636;2023-05-08T05:58:54;9.95;;;7.47;;
59434;SDS011;45241;49.768;8.636;2023-05-08T06:01:19;9.20;;;7.32;;
59434;SDS011;45241;49.768;8.636;2023-05-08T06:03:45;9.57;;;7.53;;
59434;SDS011;45241;49.768;8.636;2023-05-08T06:06:10;10.77;;;7.38;;
59434;SDS011;45241;49.768;8.636;2023-05-08T06:08:35;12.35;;;8.07;;
59434;SDS011;45241;49.768;8.636;2023-05-08T06:11:00;9.18;;;7.35;;
59434;SDS011;45241;49.768;8.636;2023-05-08T06:13:26;8.95;;;7.80;;
59434;SDS011;45241;49.768;8.636;2023-05-08T06:15:53;8.15;;;7.35;;
59434;SDS011;45241;49.768;8.636;2023-05-08T06:18:20;11.02;;;7.65;;
59434;SDS011;45241;49.768;8.636;2023-05-08T06:20:45;8.18;;;7.38;;
59434;SDS011;45241;49.768;8.636;2023-05-08T06:23:11;11.18;;;7.93;;
59434;SDS011;45241;49.768;8.636;2023-05-08T06:25:37;9.85;;;7.45;;
59434;SDS011;45241;49.768;8.636;2023-05-08T06:28:02;11.57;;;8.10;;
59434;SDS011;45241;49.768;8.636;2023-05-08T06:30:30;8.93;;;7.75;;
59434;SDS011;45241;49.768;8.636;2023-05-08T06:32:56;9.43;;;7.30;;
59434;SDS011;45241;49.768;8.636;2023-05-08T06:35:21;8.55;;;7.75;;
59434;SDS011;45241;49.768;8.636;2023-05-08T06:37:46;11.55;;;7.22;;
59434;SDS011;45241;49.768;8.636;2023-05-08T06:40:12;8.10;;;7.25;;
59434;SDS011;45241;49.768;8.636;2023-05-08T06:42:38;10.30;;;7.78;;
59434;SDS011;45241;49.768;8.636;2023-05-08T06:45:04;11.65;;;7.88;;
59434;SDS011;45241;49.768;8.636;2023-05-08T06:47:29;8.88;;;7.60;;
59434;SDS011;45241;49.768;8.636;2023-05-08T06:49:54;12.75;;;7.65;;
59434;SDS011;45241;49.768;8.636;2023-05-08T06:52:20;9.13;;;7.68;;
59434;SDS011;45241;49.768;8.636;2023-05-08T06:54:45;11.35;;;7.53;;
59434;SDS011;45241;49.768;8.636;2023-05-08T06:57:11;12.25;;;7.50;;
59434;SDS011;45241;49.768;8.636;2023-05-08T06:59:38;9.60;;;7.07;;
59434;SDS011;45241;49.768;8.636;2023-05-08T07:02:04;8.25;;;7.30;;
59434;SDS011;45241;49.768;8.636;2023-05-08T07:04:29;9.70;;;7.63;;
59434;SDS011;45241;49.768;8.636;2023-05-08T07:06:54;9.18;;;6.70;;
59434;SDS011;45241;49.768;8.636;2023-05-08T07:09:19;9.90;;;7.07;;
59434;SDS011;45241;49.768;8.636;2023-05-08T07:11:45;8.10;;;7.22;;
59434;SDS011;45241;49.768;8.636;2023-05-08T07:14:10;8.25;;;7.35;;
59434;SDS011;45241;49.768;8.636;2023-05-08T07:16:36;12.52;;;7.97;;
59434;SDS011;45241;49.768;8.636;2023-05-08T07:19:01;8.10;;;7.30;;
59434;SDS011;45241;49.768;8.636;2023-05-08T07:21:27;10.82;;;7.38;;
59434;SDS011;45241;49.768;8.636;2023-05-08T07:23:53;8.93;;;7.25;;
59434;SDS011;45241;49.768;8.636;2023-05-08T07:26:18;9.43;;;7.85;;
59434;SDS011;45241;49.768;8.636;2023-05-08T07:28:44;8.70;;;7.28;;
59434;SDS011;45241;49.768;8.636;2023-05-08T07:31:09;9.43;;;7.47;;
59434;SDS011;45241;49.768;8.636;2023-05-08T07:33:35;8.20;;;7.40;;
59434;SDS011;45241;49.768;8.636;2023-05-08T07:36:00;10.90;;;7.85;;
59434;SDS011;45241;49.768;8.636;2023-05-08T07:38:25;9.38;;;7.78;;
59434;SDS011;45241;49.768;8.636;2023-05-08T07:40:51;9.25;;;7.68;;
59434;SDS011;45241;49.768;8.636;2023-05-08T07:43:20;8.27;;;7.47;;
59434;SDS011;45241;49.768;8.636;2023-05-08T07:45:46;9.00;;;7.72;;
59434;SDS011;45241;49.768;8.636;2023-05-08T07:48:12;8.00;;;7.20;;
59434;SDS011;45241;49.768;8.636;2023-05-08T07:50:37;8.70;;;7.82;;
59434;SDS011;45241;49.768;8.636;2023-05-08T07:53:02;9.95;;;8.52;;
59434;SDS011;45241;49.768;8.636;2023-05-08T07:55:28;9.57;;;8.07;;
59434;SDS011;45241;49.768;8.636;2023-05-08T07:57:53;10.50;;;7.68;;
59434;SDS011;45241;49.768;8.636;2023-05-08T08:00:19;9.45;;;7.30;;
59434;SDS011;45241;49.768;8.636;2023-05-08T08:02:45;11.95;;;7.88;;
59434;SDS011;45241;49.768;8.636;2023-05-08T08:05:10;8.98;;;7.40;;
59434;SDS011;45241;49.768;8.636;2023-05-08T08:07:36;10.40;;;7.57;;
59434;SDS011;45241;49.768;8.636;2023-05-08T08:10:01;10.90;;;7.28;;
59434;SDS011;45241;49.768;8.636;2023-05-08T08:12:28;9.05;;;7.95;;
59434;SDS011;45241;49.768;8.636;2023-05-08T08:14:54;8.98;;;7.95;;
59434;SDS011;45241;49.768;8.636;2023-05-08T08:17:20;8.68;;;7.40;;
59434;SDS011;45241;49.768;8.636;2023-05-08T08:19:45;9.43;;;7.13;;
59434;SDS011;45241;49.768;8.636;2023-05-08T08:22:10;9.50;;;8.15;;
59434;SDS011;45241;49.768;8.636;2023-05-08T08:24:36;8.80;;;7.88;;
59434;SDS011;45241;49.768;8.636;2023-05-08T08:27:01;9.90;;;7.95;;
59434;SDS011;45241;49.768;8.636;2023-05-08T08:29:27;9.52;;;7.57;;
59434;SDS011;45241;49.768;8.636;2023-05-08T08:31:52;10.15;;;7.90;;
59434;SDS011;45241;49.768;8.636;2023-05-08T08:34:18;10.93;;;7.88;;
59434;SDS011;45241;49.768;8.636;2023-05-08T08:36:43;11.02;;;7.90;;
59434;SDS011;45241;49.768;8.636;2023-05-08T08:39:08;9.10;;;7.50;;
59434;SDS011;45241;49.768;8.636;2023-05-08T08:41:34;9.13;;;7.65;;
59434;SDS011;45241;49.768;8.636;2023-05-08T08:43:59;14.65;;;8.55;;
59434;SDS011;45241;49.768;8.636;2023-05-08T08:46:25;10.30;;;8.25;;
59434;SDS011;45241;49.768;8.636;2023-05-08T08:48:52;9.20;;;8.30;;
59434;SDS011;45241;49.768;8.636;2023-05-08T08:54:11;10.02;;;7.65;;
59434;SDS011;45241;49.768;8.636;2023-05-08T08:56:38;14.75;;;7.80;;
59434;SDS011;45241;49.768;8.636;2023-05-08T08:59:05;11.80;;;8.10;;
59434;SDS011;45241;49.768;8.636;2023-05-08T09:01:32;10.60;;;8.45;;
59434;SDS011;45241;49.768;8.636;2023-05-08T09:04:00;10.38;;;9.15;;
59434;SDS011;45241;49.768;8.636;2023-05-08T09:06:26;10.90;;;8.65;;
59434;SDS011;45241;49.768;8.636;2023-05-08T09:08:55;9.25;;;8.13;;
59434;SDS011;45241;49.768;8.636;2023-05-08T09:11:22;9.27;;;7.43;;
59434;SDS011;45241;49.768;8.636;2023-05-08T09:13:48;9.90;;;7.90;;
59434;SDS011;45241;49.768;8.636;2023-05-08T09:16:13;9.80;;;7.47;;
59434;SDS011;45241;49.768;8.636;2023-05-08T09:18:38;10.38;;;7.90;;
59434;SDS011;45241;49.768;8.636;2023-05-08T09:21:07;9.80;;;7.93;;
59434;SDS011;45241;49.768;8.636;2023-05-08T09:23:34;10.52;;;8.70;;
59434;SDS011;45241;49.768;8.636;2023-05-08T09:26:00;11.30;;;8.02;;
59434;SDS011;45241;49.768;8.636;2023-05-08T09:28:25;8.32;;;7.32;;
59434;SDS011;45241;49.768;8.636;2023-05-08T09:30:54;8.98;;;7.93;;
59434;SDS011;45241;49.768;8.636;2023-05-08T09:33:20;8.68;;;7.63;;
59434;SDS011;45241;49.768;8.636;2023-05-08T09:35:47;11.52;;;8.43;;
59434;SDS011;45241;49.768;8.636;2023-05-08T09:41:10;11.27;;;8.07;;
59434;SDS011;45241;49.768;8.636;2023-05-08T09:43:36;9.30;;;7.45;;
59434;SDS011;45241;49.768;8.636;2023-05-08T09:48:43;9.75;;;7.63;;
59434;SDS011;45241;49.768;8.636;2023-05-08T09:51:09;9.35;;;7.88;;
59434;SDS011;45241;49.768;8.636;2023-05-08T09:53:35;8.70;;;7.40;;
59434;SDS011;45241;49.768;8.636;2023-05-08T09:56:00;9.57;;;7.20;;
59434;SDS011;45241;49.768;8.636;2023-05-08T09:58:27;10.48;;;7.72;;
59434;SDS011;45241;49.768;8.636;2023-05-08T10:01:01;8.68;;;7.70;;
59434;SDS011;45241;49.768;8.636;2023-05-08T10:03:44;9.65;;;7.22;;
59434;SDS011;45241;49.768;8.636;2023-05-08T10:06:11;9.48;;;7.22;;
59434;SDS011;45241;49.768;8.636;2023-05-08T10:08:37;8.73;;;6.88;;
59434;SDS011;45241;49.768;8.636;2023-05-08T10:11:12;8.43;;;7.53;;
59434;SDS011;45241;49.768;8.636;2023-05-08T10:13:40;9.50;;;7.43;;
59434;SDS011;45241;49.768;8.636;2023-05-08T10:16:05;11.60;;;7.82;;
59434;SDS011;45241;49.768;8.636;2023-05-08T10:18:34;10.60;;;7.70;;
59434;SDS011;45241;49.768;8.636;2023-05-08T10:21:01;12.35;;;7.70;;
59434;SDS011;45241;49.768;8.636;2023-05-08T10:23:32;10.23;;;7.07;;
59434;SDS011;45241;49.768;8.636;2023-05-08T10:25:59;8.98;;;8.02;;
59434;SDS011;45241;49.768;8.636;2023-05-08T10:31:06;13.40;;;8.20;;
59434;SDS011;45241;49.768;8.636;2023-05-08T10:33:35;9.43;;;8.43;;
59434;SDS011;45241;49.768;8.636;2023-05-08T10:36:04;9.73;;;8.20;;
59434;SDS011;45241;49.768;8.636;2023-05-08T10:38:30;9.82;;;7.60;;
59434;SDS011;45241;49.768;8.636;2023-05-08T10:40:58;10.13;;;8.05;;
59434;SDS011;45241;49.768;8.636;2023-05-08T10:43:25;9.38;;;7.63;;
59434;SDS011;45241;49.768;8.636;2023-05-08T10:45:53;11.38;;;8.13;;
59434;SDS011;45241;49.768;8.636;2023-05-08T10:56:04;11.68;;;7.90;;
59434;SDS011;45241;49.768;8.636;2023-05-08T11:03:23;11.32;;;8.15;;
59434;SDS011;45241;49.768;8.636;2023-05-08T11:05:53;10.10;;;8.35;;
59434;SDS011;45241;49.768;8.636;2023-05-08T11:08:20;13.25;;;8.55;;
59434;SDS011;45241;49.768;8.636;2023-05-08T11:13:49;9.25;;;7.75;;
59434;SDS011;45241;49.768;8.636;2023-05-08T11:16:41;10.77;;;8.02;;
59434;SDS011;45241;49.768;8.636;2023-05-08T11:19:24;10.00;;;8.35;;
59434;SDS011;45241;49.768;8.636;2023-05-08T11:38:30;9.30;;;8.13;;
59434;SDS011;45241;49.768;8.636;2023-05-08T11:48:37;8.10;;;7.30;;
59434;SDS011;45241;49.768;8.636;2023-05-08T11:51:02;11.30;;;7.90;;
59434;SDS011;45241;49.768;8.636;2023-05-08T11:53:28;8.63;;;7.60;;
59434;SDS011;45241;49.768;8.636;2023-05-08T11:55:57;8.00;;;6.95;;
59434;SDS011;45241;49.768;8.636;2023-05-08T11:58:24;9.27;;;7.60;;
59434;SDS011;45241;49.768;8.636;2023-05-08T12:00:50;11.15;;;8.13;;
59434;SDS011;45241;49.768;8.636;2023-05-08T12:03:19;9.15;;;7.70;;
59434;SDS011;45241;49.768;8.636;2023-05-08T12:05:46;12.07;;;7.55;;
59434;SDS011;45241;49.768;8.636;2023-05-08T12:08:13;9.88;;;7.63;;
59434;SDS011;45241;49.768;8.636;2023-05-08T12:10:40;9.80;;;7.85;;
59434;SDS011;45241;49.768;8.636;2023-05-08T12:13:14;8.25;;;7.22;;
59434;SDS011;45241;49.768;8.636;2023-05-08T12:15:41;8.43;;;7.60;;
59434;SDS011;45241;49.768;8.636;2023-05-08T12:18:06;10.15;;;7.35;;
59434;SDS011;45241;49.768;8.636;2023-05-08T12:20:31;7.80;;;7.03;;
59434;SDS011;45241;49.768;8.636;2023-05-08T12:22:57;9.43;;;7.28;;
59434;SDS011;45241;49.768;8.636;2023-05-08T12:25:22;8.50;;;7.60;;
59434;SDS011;45241;49.768;8.636;2023-05-08T12:27:49;8.52;;;7.72;;
59434;SDS011;45241;49.768;8.636;2023-05-08T12:30:15;9.05;;;7.85;;
59434;SDS011;45241;49.768;8.636;2023-05-08T12:32:40;11.07;;;8.25;;
59434;SDS011;45241;49.768;8.636;2023-05-08T12:35:07;9.00;;;8.10;;
59434;SDS011;45241;49.768;8.636;2023-05-08T12:37:33;9.45;;;8.45;;
59434;SDS011;45241;49.768;8.636;2023-05-08T12:39:59;13.10;;;8.68;;
59434;SDS011;45241;49.768;8.636;2023-05-08T12:42:40;9.43;;;8.43;;
59434;SDS011;45241;49.768;8.636;2023-05-08T12:45:08;11.75;;;8.80;;
59434;SDS011;45241;49.768;8.636;2023-05-08T12:47:48;9.25;;;8.20;;
59434;SDS011;45241;49.768;8.636;2023-05-08T12:50:18;10.77;;;8.57;;
59434;SDS011;45241;49.768;8.636;2023-05-08T12:52:46;10.32;;;8.90;;
59434;SDS011;45241;49.768;8.636;2023-05-08T12:55:22;10.57;;;8.77;;
59434;SDS011;45241;49.768;8.636;2023-05-08T13:00:40;16.45;;;8.80;;
59434;SDS011;45241;49.768;8.636;2023-05-08T13:03:07;10.93;;;9.40;;
59434;SDS011;45241;49.768;8.636;2023-05-08T13:05:34;12.55;;;9.95;;
59434;SDS011;45241;49.768;8.636;2023-05-08T13:08:04;11.13;;;9.88;;
59434;SDS011;45241;49.768;8.636;2023-05-08T13:13:14;11.25;;;9.93;;
59434;SDS011;45241;49.768;8.636;2023-05-08T13:15:41;10.95;;;9.60;;
59434;SDS011;45241;49.768;8.636;2023-05-08T13:18:07;12.60;;;9.80;;
59434;SDS011;45241;49.768;8.636;2023-05-08T13:20:35;11.32;;;9.60;;
59434;SDS011;45241;49.768;8.636;2023-05-08T13:23:01;13.63;;;10.05;;
59434;SDS011;45241;49.768;8.636;2023-05-08T13:25:27;9.95;;;8.23;;
59434;SDS011;45241;49.768;8.636;2023-05-08T13:27:54;9.80;;;8.60;;
59434;SDS011;45241;49.768;8.636;2023-05-08T13:30:19;10.65;;;8.85;;
59434;SDS011;45241;49.768;8.636;2023-05-08T13:32:46;9.32;;;8.43;;
59434;SDS011;45241;49.768;8.636;2023-05-08T13:35:12;10.02;;;8.82;;
59434;SDS011;45241;49.768;8.636;2023-05-08T13:37:37;9.00;;;8.10;;
59434;SDS011;45241;49.768;8.636;2023-05-08T13:40:03;10.50;;;9.25;;
59434;SDS011;45241;49.768;8.636;2023-05-08T13:42:29;11.38;;;8.18;;
59434;SDS011;45241;49.768;8.636;2023-05-08T13:44:54;11.48;;;9.43;;
59434;SDS011;45241;49.768;8.636;2023-05-08T13:47:19;10.73;;;8.88;;
59434;SDS011;45241;49.768;8.636;2023-05-08T13:49:45;15.10;;;8.85;;
59434;SDS011;45241;49.768;8.636;2023-05-08T13:52:11;12.15;;;8.93;;
59434;SDS011;45241;49.768;8.636;2023-05-08T13:54:36;9.85;;;8.70;;
59434;SDS011;45241;49.768;8.636;2023-05-08T13:57:02;13.40;;;9.13;;
59434;SDS011;45241;49.768;8.636;2023-05-08T13:59:27;12.30;;;9.07;;
59434;SDS011;45241;49.768;8.636;2023-05-08T14:01:52;12.57;;;9.10;;
59434;SDS011;45241;49.768;8.636;2023-05-08T14:04:18;12.05;;;8.35;;
59434;SDS011;45241;49.768;8.636;2023-05-08T14:06:43;11.82;;;8.90;;
59434;SDS011;45241;49.768;8.636;2023-05-08T14:09:09;12.07;;;8.98;;
59434;SDS011;45241;49.768;8.636;2023-05-08T14:11:34;11.30;;;8.50;;
59434;SDS011;45241;49.768;8.636;2023-05-08T14:13:59;13.02;;;9.38;;
59434;SDS011;45241;49.768;8.636;2023-05-08T14:16:24;11.40;;;8.23;;
59434;SDS011;45241;49.768;8.636;2023-05-08T14:18:50;10.30;;;8.35;;
59434;SDS011;45241;49.768;8.636;2023-05-08T14:21:15;9.18;;;8.18;;
59434;SDS011;45241;49.768;8.636;2023-05-08T14:23:40;10.10;;;8.20;;
59434;SDS011;45241;49.768;8.636;2023-05-08T14:26:07;12.13;;;8.80;;
59434;SDS011;45241;49.768;8.636;2023-05-08T14:28:33;9.32;;;7.47;;
59434;SDS011;45241;49.768;8.636;2023-05-08T14:30:58;9.18;;;8.27;;
59434;SDS011;45241;49.768;8.636;2023-05-08T14:33:23;11.05;;;8.60;;
59434;SDS011;45241;49.768;8.636;2023-05-08T14:35:49;8.88;;;7.75;;
59434;SDS011;45241;49.768;8.636;2023-05-08T14:38:14;11.52;;;8.32;;
59434;SDS011;45241;49.768;8.636;2023-05-08T14:40:39;11.15;;;7.47;;
59434;SDS011;45241;49.768;8.636;2023-05-08T14:43:05;8.50;;;7.65;;
59434;SDS011;45241;49.768;8.636;2023-05-08T14:45:30;11.15;;;7.95;;
59434;SDS011;45241;49.768;8.636;2023-05-08T14:47:55;8.82;;;7.93;;
59434;SDS011;45241;49.768;8.636;2023-05-08T14:50:21;8.43;;;6.93;;
59434;SDS011;45241;49.768;8.636;2023-05-08T14:52:48;10.50;;;7.22;;
59434;SDS011;45241;49.768;8.636;2023-05-08T14:55:14;7.95;;;7.15;;
59434;SDS011;45241;49.768;8.636;2023-05-08T14:57:44;8.32;;;7.13;;
59434;SDS011;45241;49.768;8.636;2023-05-08T15:00:10;9.60;;;7.70;;
59434;SDS011;45241;49.768;8.636;2023-05-08T15:02:36;11.82;;;7.53;;
59434;SDS011;45241;49.768;8.636;2023-05-08T15:05:02;9.27;;;7.72;;
59434;SDS011;45241;49.768;8.636;2023-05-08T15:07:27;7.90;;;7.10;;
59434;SDS011;45241;49.768;8.636;2023-05-08T15:09:52;9.48;;;7.00;;
59434;SDS011;45241;49.768;8.636;2023-05-08T15:12:18;8.10;;;7.13;;
59434;SDS011;45241;49.768;8.636;2023-05-08T15:14:43;9.35;;;7.32;;
59434;SDS011;45241;49.768;8.636;2023-05-08T15:17:08;9.38;;;7.00;;
59434;SDS011;45241;49.768;8.636;2023-05-08T15:19:34;12.02;;;7.35;;
59434;SDS011;45241;49.768;8.636;2023-05-08T15:21:59;7.95;;;7.15;;
59434;SDS011;45241;49.768;8.636;2023-05-08T15:24:24;7.80;;;6.57;;
59434;SDS011;45241;49.768;8.636;2023-05-08T15:26:50;7.45;;;6.65;;
59434;SDS011;45241;49.768;8.636;2023-05-08T15:29:15;8.77;;;7.32;;
59434;SDS011;45241;49.768;8.636;2023-05-08T15:31:40;7.95;;;7.15;;
59434;SDS011;45241;49.768;8.636;2023-05-08T15:34:06;9.82;;;6.65;;
59434;SDS011;45241;49.768;8.636;2023-05-08T15:36:31;7.95;;;7.15;;
59434;SDS011;45241;49.768;8.636;2023-05-08T15:38:58;11.07;;;6.50;;
59434;SDS011;45241;49.768;8.636;2023-05-08T15:41:23;7.45;;;6.65;;
59434;SDS011;45241;49.768;8.636;2023-05-08T15:43:48;8.65;;;6.60;;
59434;SDS011;45241;49.768;8.636;2023-05-08T15:46:14;7.55;;;6.75;;
59434;SDS011;45241;49.768;8.636;2023-05-08T15:48:39;7.22;;;6.53;;
59434;SDS011;45241;49.768;8.636;2023-05-08T15:51:04;8.75;;;7.10;;
59434;SDS011;45241;49.768;8.636;2023-05-08T15:53:31;8.02;;;6.35;;
59434;SDS011;45241;49.768;8.636;2023-05-08T15:55:57;8.23;;;6.80;;
59434;SDS011;45241;49.768;8.636;2023-05-08T15:58:23;9.32;;;6.60;;
59434;SDS011;45241;49.768;8.636;2023-05-08T16:00:48;8.50;;;6.35;;
59434;SDS011;45241;49.768;8.636;2023-05-08T16:03:13;7.13;;;6.18;;
59434;SDS011;45241;49.768;8.636;2023-05-08T16:05:39;7.32;;;6.60;;
59434;SDS011;45241;49.768;8.636;2023-05-08T16:08:04;8.45;;;5.75;;
59434;SDS011;45241;49.768;8.636;2023-05-08T16:10:30;6.93;;;5.78;;
59434;SDS011;45241;49.768;8.636;2023-05-08T16:12:55;8.07;;;6.50;;
59434;SDS011;45241;49.768;8.636;2023-05-08T16:15:21;9.90;;;6.45;;